.
WxDataArchive / Data Records for 2008-02-17
2008-02-16 February 2008 2008-02-18

Data Records for Sunday, 17 February 2008

Time	Temp	Chill	HIndex	Humid	Dewpt	 Wind 	HiWind	WindDir	Rain 	Barom 
-----	----	-----	------	-----	-----	------	------	-------	-----	----- 
00:00	27.9	27.9	27.9	80	22.5	1	3	90	0.00	29.898 
00:05	27.9	27.9	27.9	81	22.8	1	3	90	0.00	29.894 
00:10	28.1	28.1	28.1	81	23.0	1	2	90	0.00	29.886 
00:15	28.2	28.2	28.2	82	23.4	0	2	90	0.00	29.883 
00:20	28.4	28.4	28.4	82	23.6	1	3	90	0.00	29.882 
00:25	28.4	28.4	28.4	83	23.9	0	2	112	0.00	29.881 
00:30	28.5	28.5	28.5	83	24.0	1	2	112	0.00	29.879 
00:35	28.7	28.7	28.7	83	24.2	1	3	112	0.00	29.879 
00:40	28.8	28.8	28.8	83	24.3	1	3	112	0.00	29.876 
00:45	28.8	28.8	28.8	84	24.6	1	3	112	0.00	29.870 
00:50	29.0	29.0	29.0	84	24.8	1	3	112	0.00	29.867 
00:55	29.1	29.1	29.1	84	24.9	1	3	112	0.00	29.866 
01:00	29.3	29.3	29.3	84	25.1	0	3	112	0.00	29.864 
01:05	29.4	29.4	29.4	84	25.2	1	3	112	0.00	29.861 
01:10	29.5	29.5	29.5	85	25.6	0	2	112	0.00	29.858 
01:15	29.7	29.7	29.7	85	25.8	0	2	112	0.00	29.852 
01:20	29.8	29.8	29.8	85	25.9	0	1	112	0.00	29.849 
01:25	30.0	30.0	30.0	85	26.0	0	2	112	0.00	29.847 
01:30	30.1	30.1	30.1	85	26.1	0	2	112	0.00	29.841 
01:35	30.3	30.3	30.3	85	26.3	0	2	112	0.00	29.835 
01:40	30.4	30.4	30.4	85	26.4	0	2	112	0.00	29.833 
01:45	30.4	30.4	30.4	86	26.7	0	2	112	0.00	29.831 
01:50	30.6	30.6	30.6	86	26.9	1	3	112	0.00	29.829 
01:55	30.7	30.7	30.7	87	27.3	1	2	112	0.00	29.827 
02:00	30.9	30.9	30.9	87	27.5	1	2	112	0.00	29.821 
02:05	30.9	30.9	30.9	88	27.8	1	2	112	0.00	29.816 
02:10	31.0	31.0	31.0	88	27.9	0	1	112	0.00	29.816 
02:15	31.2	31.2	31.2	89	28.3	0	1	112	0.00	29.814 
02:20	31.3	31.3	31.3	89	28.4	0	2	112	0.00	29.813 
02:25	31.3	31.3	31.3	89	28.4	1	2	112	0.00	29.812 
02:30	31.5	31.5	31.5	89	28.6	0	2	112	0.00	29.811 
02:35	31.6	31.6	31.6	89	28.7	1	2	112	0.00	29.809 
02:40	31.8	31.8	31.8	89	28.9	1	2	112	0.00	29.808 
02:45	31.9	31.9	31.9	90	29.3	1	2	112	0.00	29.806 
02:50	32.1	32.1	32.1	89	29.2	0	2	112	0.00	29.803 
02:55	32.2	32.2	32.2	89	29.3	0	2	112	0.00	29.797 
03:00	32.2	32.2	32.2	89	29.3	1	2	112	0.00	29.796 
03:05	32.4	32.4	32.4	90	29.8	0	2	112	0.00	29.794 
03:10	32.4	32.4	32.4	90	29.8	0	1	112	0.00	29.791 
03:15	32.5	32.5	32.5	90	29.9	1	1	112	0.00	29.789 
03:20	32.5	32.5	32.5	90	29.9	0	2	112	0.00	29.786 
03:25	32.7	32.7	32.7	91	30.4	1	2	112	0.00	29.782 
03:30	32.7	32.7	32.7	91	30.4	0	1	112	0.00	29.779 
03:35	32.8	32.8	32.8	92	30.7	0	1	112	0.00	29.777 
03:40	32.9	32.9	32.9	92	30.8	0	2	112	0.00	29.774 
03:45	33.1	33.1	33.1	92	31.0	0	1	112	0.00	29.767 
03:50	33.2	33.2	33.2	92	31.1	0	1	112	0.00	29.764 
03:55	33.2	33.2	33.2	92	31.1	0	1	112	0.00	29.762 
04:00	33.5	33.5	33.5	93	31.7	0	2	112	0.00	29.761 
04:05	33.7	33.7	33.7	93	31.9	1	2	112	0.00	29.752 
04:10	33.8	33.8	33.8	93	32.0	0	2	112	0.00	29.747 
04:15	34.0	34.0	34.0	93	32.2	0	1	112	0.00	29.745 
04:20	34.1	34.1	34.1	93	32.3	0	1	112	0.00	29.743 
04:25	34.3	34.3	34.3	93	32.5	0	2	112	0.00	29.738 
04:30	34.4	34.4	34.4	94	32.9	1	3	112	0.00	29.729 
04:35	34.6	34.6	34.6	94	33.1	0	1	112	0.00	29.727 
04:40	34.7	34.7	34.7	94	33.2	0	1	112	0.00	29.729 
04:45	34.9	34.9	34.9	94	33.4	0	2	112	0.00	29.730 
04:50	35.0	35.0	35.0	94	33.5	0	3	112	0.01	29.728 
04:55	35.3	35.3	35.3	95	34.0	1	2	112	0.00	29.725 
05:00	35.8	35.8	35.8	95	34.5	1	3	135	0.00	29.719 
05:05	35.9	35.9	35.9	95	34.6	1	3	112	0.00	29.717 
05:10	36.0	36.0	36.0	95	34.7	1	2	158	0.00	29.713 
05:15	36.2	36.2	36.2	95	34.9	1	3	112	0.00	29.711 
05:20	36.5	36.5	36.5	95	35.2	2	6	135	0.00	29.711 
05:25	36.6	36.6	36.6	95	35.3	1	3	135	0.00	29.708 
05:30	36.8	36.8	36.8	95	35.5	1	3	90	0.00	29.700 
05:35	36.8	36.8	36.8	95	35.5	1	3	112	0.00	29.696 
05:40	36.9	36.9	36.9	95	35.6	1	2	135	0.00	29.692 
05:45	37.0	37.0	37.0	95	35.7	1	4	112	0.00	29.684 
05:50	36.9	36.9	36.9	95	35.6	1	4	112	0.00	29.681 
05:55	36.8	36.8	36.8	95	35.5	1	3	112	0.00	29.678 
06:00	36.8	36.8	36.8	95	35.5	1	3	112	0.00	29.667 
06:05	36.9	36.9	36.9	96	35.9	1	3	112	0.00	29.666 
06:10	36.9	36.9	36.9	96	35.9	1	2	112	0.01	29.666 
06:15	36.9	36.9	36.9	96	35.9	1	2	112	0.00	29.662 
06:20	37.0	37.0	37.0	96	36.0	1	2	135	0.01	29.654 
06:25	37.0	37.0	37.0	96	36.0	0	2	135	0.00	29.648 
06:30	37.0	37.0	37.0	96	36.0	1	3	135	0.01	29.635 
06:35	37.3	37.3	37.3	96	36.3	2	4	112	0.00	29.629 
06:40	37.5	37.5	37.5	96	36.5	2	6	112	0.01	29.624 
06:45	37.6	37.6	37.6	96	36.6	1	3	112	0.00	29.617 
06:50	37.6	37.6	37.6	96	36.6	1	3	135	0.01	29.617 
06:55	37.5	37.5	37.5	96	36.5	1	2	135	0.00	29.619 
07:00	37.6	37.6	37.6	96	36.6	1	3	135	0.01	29.611 
07:05	37.6	37.6	37.6	96	36.6	1	2	90	0.01	29.605 
07:10	37.6	37.6	37.6	96	36.6	1	4	90	0.00	29.599 
07:15	37.8	37.8	37.8	96	36.8	2	4	112	0.01	29.593 
07:20	37.9	37.9	37.9	96	36.9	2	4	112	0.01	29.588 
07:25	38.2	38.2	38.2	96	37.2	2	5	112	0.00	29.583 
07:30	38.2	38.2	38.2	96	37.2	1	4	135	0.00	29.573 
07:35	38.2	38.2	38.2	96	37.2	1	3	135	0.00	29.571 
07:40	38.3	38.3	38.3	96	37.3	1	3	112	0.01	29.567 
07:45	38.3	38.3	38.3	96	37.3	1	3	112	0.00	29.569 
07:50	38.3	38.3	38.3	96	37.3	1	4	112	0.00	29.568 
07:55	38.5	38.5	38.5	96	37.5	2	5	112	0.00	29.558 
08:00	38.6	38.6	38.6	96	37.6	2	5	135	0.02	29.556 
08:05	38.6	38.6	38.6	96	37.6	1	3	135	0.00	29.561 
08:10	38.8	38.8	38.8	96	37.8	0	2	135	0.00	29.572 
08:15	38.8	38.8	38.8	96	37.8	1	2	135	0.00	29.567 
08:20	38.8	38.8	38.8	96	37.8	1	4	135	0.00	29.560 
08:25	38.8	38.8	38.8	96	37.8	1	4	112	0.00	29.556 
08:30	38.6	38.6	38.6	96	37.6	1	3	112	0.00	29.546 
08:35	38.8	38.8	38.8	96	37.8	1	4	112	0.00	29.543 
08:40	38.8	38.8	38.8	96	37.8	1	3	112	0.00	29.542 
08:45	38.9	38.9	38.9	96	37.9	1	3	135	0.00	29.541 
08:50	38.9	38.9	38.9	96	37.9	1	3	158	0.00	29.534 
08:55	39.1	39.1	39.1	96	38.1	1	4	112	0.00	29.527 
09:00	39.1	39.1	39.1	96	38.1	1	3	135	0.00	29.524 
09:05	39.3	39.3	39.3	96	38.3	1	2	135	0.00	29.516 
09:10	39.3	39.3	39.3	96	38.3	1	4	135	0.00	29.512 
09:15	39.5	39.5	39.5	96	38.5	1	4	112	0.00	29.507 
09:20	39.6	39.6	39.6	96	38.6	2	5	112	0.00	29.495 
09:25	39.6	39.6	39.6	96	38.6	2	5	112	0.00	29.493 
09:30	39.8	39.8	39.8	96	38.8	2	4	112	0.00	29.484 
09:35	39.9	39.9	39.9	96	38.9	2	5	112	0.00	29.483 
09:40	39.9	39.9	39.9	96	38.9	1	3	112	0.00	29.476 
09:45	39.9	39.9	39.9	95	38.6	2	5	158	0.01	29.469 
09:50	40.1	40.1	40.1	95	38.8	2	5	112	0.00	29.463 
09:55	40.3	40.3	40.3	95	39.0	3	6	90	0.00	29.463 
10:00	40.8	40.8	40.8	95	39.5	3	7	112	0.01	29.460 
10:05	41.2	38.7	41.2	95	39.9	4	7	90	0.01	29.450 
10:10	41.6	39.2	41.6	94	40.0	4	10	112	0.01	29.441 
10:15	41.8	39.4	41.8	94	40.2	4	9	90	0.01	29.407 
10:20	42.2	39.1	42.2	93	40.3	5	11	90	0.00	29.424 
10:25	42.3	40.0	42.3	93	40.4	4	10	90	0.00	29.423 
10:30	42.5	40.2	42.5	92	40.3	4	10	90	0.00	29.414 
10:35	42.8	40.6	42.8	92	40.6	4	10	112	0.01	29.417 
10:40	43.1	40.9	43.1	92	40.9	4	11	112	0.00	29.405 
10:45	43.3	40.3	43.3	92	41.1	5	10	90	0.00	29.393 
10:50	43.6	41.5	43.6	91	41.1	4	10	90	0.00	29.385 
10:55	43.9	41.8	43.9	91	41.4	4	10	90	0.00	29.378 
11:00	44.1	42.1	44.1	90	41.4	4	9	90	0.00	29.375 
11:05	44.2	42.2	44.2	90	41.5	4	12	90	0.00	29.371 
11:10	44.3	41.5	44.3	89	41.3	5	10	90	0.00	29.369 
11:15	44.5	42.5	44.5	89	41.5	4	9	90	0.00	29.358 
11:20	44.6	42.6	44.6	88	41.3	4	11	90	0.00	29.358 
11:25	44.9	42.2	44.9	88	41.6	5	12	90	0.00	29.352 
11:30	45.2	43.3	45.2	88	41.9	4	13	90	0.00	29.353 
11:35	45.5	45.5	45.5	88	42.2	3	10	112	0.00	29.346 
11:40	45.8	44.0	45.8	87	42.2	4	11	112	0.00	29.341 
11:45	46.1	43.6	46.1	86	42.1	5	13	90	0.00	29.333 
11:50	46.2	44.5	46.2	86	42.2	4	14	90	0.00	29.329 
11:55	46.2	44.5	46.2	86	42.2	4	9	112	0.00	29.326 
12:00	46.4	44.0	46.4	86	42.4	5	11	90	0.00	29.310 
12:05	46.5	44.8	46.5	86	42.5	4	9	90	0.00	29.303 
12:10	46.8	46.8	46.8	85	42.5	3	11	90	0.00	29.292 
12:15	47.1	45.5	47.1	85	42.8	4	10	90	0.00	29.291 
12:20	47.7	45.5	47.7	84	43.1	5	15	90	0.00	29.287 
12:25	48.0	45.9	48.0	83	43.1	5	11	90	0.00	29.289 
12:30	48.2	46.1	48.2	82	43.0	5	13	90	0.00	29.286 
12:35	48.3	45.6	48.3	83	43.4	6	11	112	0.00	29.280 
12:40	48.3	46.2	48.3	83	43.4	5	13	90	0.00	29.276 
12:45	48.5	47.1	48.5	83	43.6	4	10	90	0.01	29.267 
12:50	48.5	47.1	48.5	82	43.3	4	12	90	0.00	29.263 
12:55	48.6	47.3	48.6	82	43.4	4	9	90	0.00	29.256 
13:00	48.6	47.3	48.6	82	43.4	4	10	112	0.00	29.248 
13:05	48.9	48.9	48.9	81	43.3	3	10	90	0.00	29.242 
13:10	49.4	48.2	49.4	81	43.8	4	11	90	0.00	29.235 
13:15	49.9	48.8	49.9	80	44.0	4	9	90	0.00	29.228 
13:20	50.5	50.5	50.5	79	44.2	5	12	90	0.00	29.220 
13:25	51.0	51.0	51.0	78	44.4	5	14	90	0.00	29.219 
13:30	51.4	51.4	51.4	78	44.8	4	13	68	0.00	29.220 
13:35	51.4	51.4	51.4	78	44.8	2	6	0	0.00	29.224 
13:40	51.4	51.4	51.4	78	44.8	4	11	90	0.00	29.210 
13:45	51.6	51.6	51.6	78	45.0	3	10	90	0.00	29.208 
13:50	51.6	51.6	51.6	78	45.0	4	11	90	0.00	29.205 
13:55	51.9	51.9	51.9	79	45.6	4	11	90	0.00	29.198 
14:00	52.0	52.0	52.0	79	45.7	4	12	90	0.00	29.195 
14:05	52.3	52.3	52.3	79	46.0	4	9	90	0.00	29.198 
14:10	52.2	52.2	52.2	81	46.5	4	10	112	0.01	29.200 
14:15	51.6	51.6	51.6	84	46.9	4	11	248	0.00	29.207 
14:20	51.1	51.1	51.1	86	47.1	2	5	248	0.02	29.202 
14:25	50.7	50.7	50.7	88	47.3	3	8	248	0.00	29.197 
14:30	50.5	50.5	50.5	90	47.7	3	7	248	0.01	29.196 
14:35	50.4	50.4	50.4	91	47.9	2	6	248	0.01	29.192 
14:40	50.2	50.2	50.2	91	47.7	3	6	248	0.01	29.193 
14:45	50.1	50.1	50.1	92	47.9	2	6	270	0.00	29.191 
14:50	50.1	50.1	50.1	92	47.9	1	4	270	0.00	29.188 
14:55	50.2	50.2	50.2	92	48.0	1	5	270	0.00	29.182 
15:00	50.4	50.4	50.4	93	48.5	1	6	248	0.00	29.179 
15:05	50.7	50.7	50.7	93	48.7	1	5	248	0.00	29.175 
15:10	50.8	50.8	50.8	92	48.6	1	3	45	0.00	29.176 
15:15	50.8	50.8	50.8	92	48.6	2	3	90	0.00	29.174 
15:20	51.1	51.1	51.1	92	48.9	2	4	90	0.00	29.170 
15:25	51.1	51.1	51.1	92	48.9	1	4	68	0.00	29.169 
15:30	51.3	51.3	51.3	92	49.1	2	4	68	0.00	29.164 
15:35	51.6	51.6	51.6	92	49.4	1	4	0	0.00	29.164 
15:40	52.2	52.2	52.2	92	49.9	1	6	270	0.00	29.164 
15:45	52.6	52.6	52.6	92	50.3	2	6	135	0.00	29.163 
15:50	53.1	53.1	53.1	91	50.5	1	7	112	0.00	29.161 
15:55	53.2	53.2	53.2	90	50.3	1	6	90	0.00	29.158 
16:00	53.3	53.3	53.3	89	50.1	2	9	292	0.00	29.157 
16:05	52.9	52.9	52.9	88	49.4	1	5	135	0.00	29.157 
16:10	52.5	52.5	52.5	89	49.4	1	6	22	0.00	29.158 
16:15	52.2	52.2	52.2	89	49.1	2	6	22	0.00	29.155 
16:20	52.2	52.2	52.2	89	49.1	1	6	248	0.00	29.157 
16:25	52.2	52.2	52.2	89	49.1	1	4	45	0.00	29.161 
16:30	52.2	52.2	52.2	89	49.1	1	4	22	0.00	29.162 
16:35	52.0	52.0	52.0	89	48.9	1	4	248	0.00	29.165 
16:40	52.0	52.0	52.0	88	48.6	3	7	225	0.00	29.160 
16:45	52.2	52.2	52.2	87	48.4	2	5	248	0.00	29.163 
16:50	52.3	52.3	52.3	84	47.6	3	6	248	0.00	29.166 
16:55	52.6	52.6	52.6	81	46.9	3	11	248	0.00	29.165 
17:00	52.9	52.9	52.9	78	46.2	3	7	248	0.00	29.167 
17:05	53.2	53.2	53.2	77	46.2	3	11	248	0.00	29.167 
17:10	53.2	53.2	53.2	75	45.5	2	7	248	0.00	29.168 
17:15	53.1	53.1	53.1	75	45.4	2	3	248	0.00	29.169 
17:20	52.8	52.8	52.8	75	45.1	2	6	248	0.00	29.168 
17:25	52.8	52.8	52.8	73	44.4	3	9	248	0.00	29.169 
17:30	52.9	52.9	52.9	72	44.1	3	10	248	0.00	29.170 
17:35	53.1	53.1	53.1	70	43.6	3	10	248	0.00	29.169 
17:40	53.1	53.1	53.1	69	43.2	4	7	248	0.00	29.179 
17:45	53.3	53.3	53.3	69	43.4	10	24	248	0.00	29.170 
17:50	53.2	53.2	53.2	70	43.7	8	23	270	0.00	29.176 
17:55	52.6	52.6	52.6	71	43.5	8	15	270	0.00	29.171 
18:00	52.6	52.6	52.6	71	43.5	7	17	248	0.00	29.182 
18:05	52.5	52.5	52.5	71	43.4	6	13	248	0.00	29.186 
18:10	52.5	52.5	52.5	70	43.0	7	13	248	0.00	29.186 
18:15	52.3	52.3	52.3	71	43.2	6	15	270	0.00	29.180 
18:20	52.2	52.2	52.2	70	42.7	7	14	270	0.00	29.183 
18:25	52.3	52.3	52.3	69	42.4	6	13	248	0.00	29.185 
18:30	52.2	52.2	52.2	69	42.3	5	16	270	0.00	29.185 
18:35	52.0	52.0	52.0	69	42.1	5	13	248	0.00	29.185 
18:40	52.0	52.0	52.0	69	42.1	4	12	248	0.00	29.187 
18:45	51.9	51.9	51.9	69	42.1	4	10	248	0.00	29.189 
18:50	51.9	51.9	51.9	70	42.4	4	10	270	0.00	29.190 
18:55	51.6	51.6	51.6	71	42.5	4	11	248	0.00	29.196 
19:00	51.1	51.1	51.1	74	43.1	5	13	270	0.00	29.200 
19:05	50.5	50.5	50.5	78	43.9	6	13	270	0.01	29.200 
19:10	49.8	46.9	49.8	81	44.2	7	17	270	0.00	29.206 
19:15	49.2	46.2	49.2	84	44.6	7	16	248	0.00	29.207 
19:20	48.6	46.6	48.6	85	44.3	5	14	270	0.01	29.208 
19:25	48.0	45.3	48.0	87	44.3	6	14	270	0.00	29.219 
19:30	46.5	43.0	46.5	86	42.5	7	16	270	0.01	29.220 
19:35	45.5	42.9	45.5	88	42.2	5	11	270	0.00	29.226 
19:40	45.1	41.8	45.1	89	42.1	6	13	270	0.00	29.224 
19:45	45.1	41.8	45.1	89	42.1	6	14	270	0.00	29.224 
19:50	44.9	42.2	44.9	89	41.9	5	16	248	0.00	29.225 
19:55	44.8	42.1	44.8	89	41.8	5	11	270	0.00	29.226 
20:00	44.8	42.1	44.8	88	41.5	5	13	270	0.00	29.225 
20:05	44.6	41.2	44.6	87	41.0	6	13	270	0.00	29.225 
20:10	44.5	41.1	44.5	86	40.6	6	12	270	0.00	29.222 
20:15	44.3	41.5	44.3	85	40.1	5	12	270	0.00	29.222 
20:20	44.2	41.4	44.2	85	40.0	5	12	248	0.00	29.224 
20:25	44.1	41.3	44.1	85	39.9	5	14	270	0.00	29.229 
20:30	44.1	39.6	44.1	84	39.6	8	16	270	0.00	29.226 
20:35	44.1	40.6	44.1	83	39.3	6	15	248	0.00	29.225 
20:40	43.9	40.4	43.9	82	38.8	6	15	248	0.00	29.225 
20:45	43.8	40.9	43.8	81	38.4	5	14	270	0.00	29.236 
20:50	43.6	39.5	43.6	80	37.8	7	14	270	0.00	29.239 
20:55	43.5	39.4	43.5	79	37.4	7	16	270	0.00	29.236 
21:00	43.3	39.1	43.3	78	36.9	7	21	270	0.00	29.239 
21:05	43.2	39.0	43.2	77	36.5	7	15	270	0.00	29.241 
21:10	42.9	38.6	42.9	76	35.9	7	21	270	0.00	29.243 
21:15	42.8	38.5	42.8	75	35.4	7	18	270	0.00	29.241 
21:20	42.5	38.2	42.5	73	34.5	7	16	248	0.00	29.242 
21:25	42.3	37.9	42.3	72	33.9	7	15	270	0.00	29.245 
21:30	41.9	36.9	41.9	73	33.9	8	19	270	0.00	29.245 
21:35	41.6	38.4	41.6	74	33.9	5	14	270	0.00	29.255 
21:40	41.2	36.6	41.2	75	33.9	7	14	270	0.00	29.255 
21:45	40.9	35.2	40.9	77	34.3	9	23	270	0.00	29.263 
21:50	40.2	34.3	40.2	78	33.9	9	19	270	0.00	29.271 
21:55	39.6	35.3	39.6	79	33.6	6	17	270	0.00	29.275 
22:00	38.8	33.1	38.8	81	33.5	8	22	270	0.00	29.279 
22:05	38.0	32.2	38.0	80	32.4	8	22	270	0.00	29.286 
22:10	37.6	32.2	37.6	81	32.3	7	17	270	0.00	29.288 
22:15	37.3	31.9	37.3	82	32.3	7	16	270	0.00	29.296 
22:20	37.0	30.4	37.0	82	32.0	9	18	270	0.00	29.302 
22:25	36.6	29.9	36.6	82	31.6	9	26	270	0.00	29.308 
22:30	36.2	28.9	36.2	82	31.2	10	19	270	0.00	29.320 
22:35	35.2	28.7	35.2	82	30.3	8	22	270	0.00	29.322 
22:40	34.6	28.6	34.6	83	30.0	7	22	270	0.00	29.333 
22:45	34.3	28.3	34.3	83	29.7	7	16	270	0.00	29.338 
22:50	34.0	26.7	34.0	82	29.1	9	25	270	0.00	29.338 
22:55	33.7	25.8	33.7	81	28.5	10	20	270	0.00	29.347 
23:00	33.5	26.1	33.5	82	28.6	9	19	270	0.00	29.352 
23:05	33.4	27.2	33.4	83	28.8	7	17	270	0.00	29.355 
23:10	33.2	26.9	33.2	84	28.9	7	17	270	0.00	29.354 
23:15	33.1	26.8	33.1	84	28.8	7	16	270	0.00	29.360 
23:20	32.9	25.4	32.9	85	28.9	9	19	270	0.00	29.367 
23:25	32.8	25.8	32.8	86	29.1	8	17	270	0.00	29.370 
23:30	32.8	28.0	32.8	87	29.4	5	11	270	0.00	29.369 
23:35	32.7	27.9	32.7	87	29.3	5	13	270	0.00	29.368 
23:40	32.7	27.9	32.7	86	29.0	5	13	270	0.00	29.369 
23:45	32.7	28.9	32.7	86	29.0	4	10	270	0.00	29.369 
23:50	32.7	28.9	32.7	85	28.7	4	12	270	0.00	29.373 
23:55	32.7	28.9	32.7	85	28.7	4	10	270	0.00	29.384 

CoCoRaHS
IN-AL-39
A2 Web Hosting
Creative Commons License
GoDaddy
Look for:

loaded 2017-12-12 01:31:15 • last modified 2010-11-18 10:43:29
Privacy PolicyDisclaimer
• wx.awcolley.com is powered by PmWiki v.2002016 •
• all content (unless otherwise noted) © 2017 A W Colley